Time;durP1;ratioP1;P1;durP2;ratioP2;P2;SDS_P1;SDS_P2;PMS_P1;PMS_P2;Temp;Humidity;BMP_temperature;BMP_pressure;BME280_temperature;BME280_humidity;BME280_pressure;Samples;Min_cycle;Max_cycle;Signal;HPM_P1;HPM_P2
2022/01/19 00:01:47;;;;;;;35.63;12.43;;;;;;;15.47;38.70;103355.81;5109628;28;20042;-68
2022/01/19 00:04:13;;;;;;;25.53;9.43;;;;;;;14.93;38.94;103349.13;5128997;28;20113;-68
2022/01/19 00:06:38;;;;;;;21.47;9.47;;;;;;;15.21;39.27;103348.53;5111358;28;20428;-68
2022/01/19 00:09:04;;;;;;;21.77;8.67;;;;;;;15.59;37.59;103348.00;5109917;28;20031;-68
2022/01/19 00:11:29;;;;;;;34.27;8.73;;;;;;;15.00;38.56;103342.19;5124885;28;20069;-68
2022/01/19 00:13:55;;;;;;;21.80;9.23;;;;;;;14.64;39.49;103348.75;5109690;28;20031;-68
2022/01/19 00:16:25;;;;;;;23.07;9.73;;;;;;;14.37;39.99;103365.00;5104124;28;20016;-68
2022/01/19 00:18:50;;;;;;;22.13;8.50;;;;;;;14.28;40.51;103360.50;5095775;28;20368;-68
2022/01/19 00:21:15;;;;;;;27.60;7.57;;;;;;;14.04;39.90;103350.47;5111610;28;20081;-68
2022/01/19 00:23:41;;;;;;;22.90;7.97;;;;;;;14.61;39.32;103343.41;5107119;28;20034;-68
2022/01/19 00:26:06;;;;;;;19.20;7.97;;;;;;;14.67;38.84;103333.00;5128787;28;20066;-68
2022/01/19 00:28:31;;;;;;;16.13;8.47;;;;;;;15.02;38.39;103335.16;5129777;28;20555;-68
2022/01/19 00:30:57;;;;;;;23.20;8.10;;;;;;;14.74;38.59;103319.06;5129306;28;20467;-68
2022/01/19 00:33:23;;;;;;;20.27;8.10;;;;;;;14.10;39.91;103303.25;5128451;28;20100;-67
2022/01/19 00:35:49;;;;;;;20.60;7.87;;;;;;;14.39;38.93;103285.22;5097070;28;20043;-68
2022/01/19 00:38:15;;;;;;;20.57;8.60;;;;;;;14.45;38.61;103270.38;5105081;28;20061;-69
2022/01/19 00:40:41;;;;;;;14.07;7.40;;;;;;;13.73;39.32;103265.91;5097713;28;20445;-68
2022/01/19 00:43:06;;;;;;;19.30;6.90;;;;;;;13.57;39.21;103259.50;5110776;28;20440;-68
2022/01/19 00:45:32;;;;;;;21.37;6.63;;;;;;;13.66;40.13;103243.88;5110247;28;20042;-68
2022/01/19 00:47:58;;;;;;;18.83;7.53;;;;;;;12.63;40.52;103236.81;5129328;28;20114;-68
2022/01/19 00:50:27;;;;;;;19.00;6.77;;;;;;;13.15;41.30;103250.03;5110750;28;20109;-68
2022/01/19 00:52:53;;;;;;;18.63;7.07;;;;;;;13.34;40.49;103249.47;5128707;28;20035;-68
2022/01/19 00:55:21;;;;;;;15.50;7.57;;;;;;;13.70;40.09;103255.34;5096660;28;20063;-68
2022/01/19 00:57:46;;;;;;;14.73;6.83;;;;;;;13.99;38.91;103247.88;5113520;27;20031;-68
2022/01/19 01:00:15;;;;;;;15.47;7.43;;;;;;;14.29;38.33;103246.53;5126883;27;20059;-68
2022/01/19 01:02:41;;;;;;;14.37;7.17;;;;;;;13.93;38.86;103245.16;5105660;27;20023;-68
2022/01/19 01:05:07;;;;;;;22.83;9.07;;;;;;;13.73;39.23;103250.13;5113128;27;20039;-68
2022/01/19 01:07:33;;;;;;;15.67;7.43;;;;;;;13.46;39.61;103255.81;5104458;27;20027;-68
2022/01/19 01:10:02;;;;;;;21.17;9.27;;;;;;;13.49;39.73;103237.47;5132762;27;20547;-68
2022/01/19 01:12:43;;;;;;;29.50;12.70;;;;;;;13.26;40.56;103218.66;5130489;27;20475;-68
2022/01/19 01:20:38;;;;;;;28.17;13.87;;;;;;;14.10;38.69;103191.94;5111912;28;20032;-68
2022/01/19 01:23:06;;;;;;;23.15;11.07;;;;;;;14.03;38.45;103178.69;5128063;27;20033;-68
2022/01/19 01:25:32;;;;;;;16.77;9.67;;;;;;;13.50;39.16;103178.81;5132973;27;20454;-68
2022/01/19 01:27:57;;;;;;;25.17;10.60;;;;;;;12.94;40.22;103177.91;5113749;27;20026;-68
2022/01/19 01:30:23;;;;;;;22.87;9.97;;;;;;;12.84;40.79;103186.44;5112610;27;20074;-68
2022/01/19 01:32:48;;;;;;;20.93;8.00;;;;;;;12.31;41.92;103168.81;5098437;28;20020;-67
2022/01/19 01:35:14;;;;;;;13.53;6.90;;;;;;;13.76;38.87;103159.91;5100393;27;20103;-68
2022/01/19 01:37:39;;;;;;;17.93;6.77;;;;;;;13.09;39.85;103155.38;5114443;27;20031;-68
2022/01/19 01:40:08;;;;;;;14.77;7.13;;;;;;;13.85;38.69;103154.81;5101888;27;20027;-68
2022/01/19 01:42:33;;;;;;;14.40;7.00;;;;;;;13.38;39.34;103142.72;5113967;27;20062;-68
2022/01/19 01:45:01;;;;;;;15.43;7.97;;;;;;;12.87;40.34;103139.25;5131721;27;20498;-68
2022/01/19 01:47:27;;;;;;;14.90;7.40;;;;;;;12.71;40.00;103123.25;5130841;27;20050;-68
2022/01/19 01:55:11;;;;;;;16.53;7.77;;;;;;;13.62;38.77;103134.31;5131332;27;20092;-68
2022/01/19 01:57:36;;;;;;;13.60;6.73;;;;;;;13.48;38.67;103133.25;5113540;27;20042;-68
2022/01/19 02:00:05;;;;;;;14.47;6.13;;;;;;;13.68;38.11;103131.81;5111951;27;20399;-68
2022/01/19 02:02:30;;;;;;;13.57;6.93;;;;;;;13.94;37.53;103128.59;5114725;27;20027;-67
2022/01/19 02:04:56;;;;;;;14.07;7.13;;;;;;;13.95;37.60;103127.75;5097781;27;20031;-68
2022/01/19 02:07:30;;;;;;;13.37;6.77;;;;;;;13.21;39.35;103118.81;5111924;27;20513;-67
2022/01/19 02:10:01;;;;;;;13.80;5.97;;;;;;;13.81;38.86;103117.06;5130002;27;20411;-68
2022/01/19 02:23:26;;;;;;;23.87;10.33;;;;;;;14.55;38.15;103054.72;5127385;27;20132;-68
2022/01/19 02:25:59;;;;;;;28.03;10.27;;;;;;;14.28;39.45;103055.34;5113099;27;20079;-68
2022/01/19 02:41:33;;;;;;;30.40;10.93;;;;;;;15.55;36.54;103035.19;5129130;27;20096;-69
2022/01/19 02:43:59;;;;;;;25.10;10.50;;;;;;;15.27;37.33;103035.06;5111907;27;20029;-67
2022/01/19 02:49:17;;;;;;;30.60;10.97;;;;;;;14.74;37.78;103024.22;5090214;27;20118;-67
2022/01/19 02:51:45;;;;;;;28.40;11.30;;;;;;;14.08;39.26;103016.59;5108973;27;20050;-67
2022/01/19 02:54:21;;;;;;;27.80;10.70;;;;;;;14.66;38.75;103004.84;5111991;27;20127;-67
2022/01/19 02:56:51;;;;;;;32.77;10.40;;;;;;;14.58;38.73;103001.25;5112944;27;20023;-67
2022/01/19 03:09:42;;;;;;;27.73;12.33;;;;;;;15.09;37.57;102968.22;5110279;28;20483;-67
2022/01/19 03:12:08;;;;;;;33.00;12.17;;;;;;;15.31;36.61;102957.81;5122884;27;20442;-67
2022/01/19 03:14:34;;;;;;;25.73;11.17;;;;;;;14.87;37.95;102954.06;5130554;27;20069;-67
2022/01/19 03:16:59;;;;;;;30.43;11.70;;;;;;;14.72;37.73;102956.63;5129449;27;20058;-67
2022/01/19 03:19:26;;;;;;;31.93;10.87;;;;;;;15.06;37.14;102941.88;5110264;27;20031;-67
2022/01/19 03:21:52;;;;;;;28.80;10.87;;;;;;;14.96;37.76;102945.38;5111144;27;20050;-67
2022/01/19 03:24:18;;;;;;;35.37;12.23;;;;;;;14.95;37.18;102934.81;5112173;27;20023;-67
2022/01/19 03:26:44;;;;;;;29.07;11.37;;;;;;;14.73;37.71;102930.31;5107483;27;20023;-67
2022/01/19 03:29:09;;;;;;;32.03;13.20;;;;;;;14.95;37.70;102919.91;5111113;27;20050;-67
2022/01/19 03:31:35;;;;;;;31.73;11.97;;;;;;;14.99;37.00;102918.13;5110320;27;20023;-67
2022/01/19 03:34:01;;;;;;;27.03;10.80;;;;;;;15.47;36.20;102911.31;5129061;27;20034;-67
2022/01/19 03:36:26;;;;;;;29.27;11.60;;;;;;;14.82;36.66;102916.31;5128730;27;20064;-67
2022/01/19 03:38:52;;;;;;;28.43;10.17;;;;;;;14.73;37.69;102911.88;5112025;27;20425;-66
2022/01/19 03:41:18;;;;;;;32.63;11.70;;;;;;;14.81;37.29;102913.66;5111276;28;20156;-67
2022/01/19 03:43:43;;;;;;;26.57;10.70;;;;;;;14.55;37.86;102917.00;5110844;27;20038;-66
2022/01/19 03:46:14;;;;;;;33.13;11.07;;;;;;;14.72;37.66;102915.38;5103000;28;20114;-66
2022/01/19 03:48:52;;;;;;;30.17;11.87;;;;;;;14.67;37.49;102927.66;5130168;27;20622;-67
2022/01/19 03:51:17;;;;;;;33.00;11.07;;;;;;;14.96;37.25;102926.94;5101573;28;20490;-67
2022/01/19 03:53:43;;;;;;;30.20;11.33;;;;;;;14.71;37.75;102923.28;5110560;28;20023;-67
2022/01/19 03:56:08;;;;;;;32.27;11.37;;;;;;;14.81;37.54;102913.66;5111200;28;20031;-67
2022/01/19 03:58:35;;;;;;;33.47;10.77;;;;;;;14.90;37.34;102916.34;5111081;28;20110;-67
2022/01/19 04:01:02;;;;;;;28.13;11.50;;;;;;;14.63;37.80;102915.34;5122212;28;20019;-67
2022/01/19 04:04:06;;;;;;;24.23;9.93;;;;;;;14.69;37.96;102910.09;5110243;28;20050;-67
2022/01/19 04:06:29;;;;;;;28.30;12.17;;;;;;;14.75;37.83;102904.88;5126558;28;20046;-66
2022/01/19 04:08:54;;;;;;;28.73;10.60;;;;;;;14.65;37.92;102913.59;5110877;28;20379;-67
2022/01/19 04:11:22;;;;;;;35.70;11.90;;;;;;;15.36;37.39;102908.66;5111363;28;20056;-66
2022/01/19 04:16:19;;;;;;;29.70;11.02;;;;;;;15.07;37.44;102914.69;5128265;28;20078;-68
2022/01/19 04:18:45;;;;;;;29.47;10.90;;;;;;;15.58;37.35;102903.44;5112121;28;20487;-66
2022/01/19 04:21:10;;;;;;;32.20;11.20;;;;;;;15.86;36.63;102898.22;5101697;28;20487;-67
2022/01/19 04:23:36;;;;;;;26.07;10.47;;;;;;;15.72;37.24;102901.69;5095097;28;20146;-67
2022/01/19 04:26:01;;;;;;;30.43;11.43;;;;;;;15.52;37.75;102906.91;5113470;28;20036;-67
2022/01/19 04:28:27;;;;;;;30.97;11.97;;;;;;;15.69;37.18;102901.69;5089875;28;20118;-67
2022/01/19 04:30:52;;;;;;;34.10;11.53;;;;;;;16.31;36.19;102901.72;5104927;27;20058;-67
2022/01/19 04:33:22;;;;;;;26.87;11.10;;;;;;;16.03;36.45;102896.47;5133407;27;20527;-66
2022/01/19 04:35:54;;;;;;;30.83;11.70;;;;;;;15.62;37.05;102894.66;5132839;27;20034;-68
2022/01/19 04:54:45;;;;;;;29.13;12.63;;;;;;;15.92;37.25;102856.00;5130548;27;20398;-67
2022/01/19 05:03:08;;;;;;;29.33;13.23;;;;;;;16.07;36.90;102849.84;5126971;27;20042;-67
2022/01/19 05:05:44;;;;;;;31.37;12.60;;;;;;;16.62;35.85;102838.28;5131870;27;20458;-67
2022/01/19 05:08:18;;;;;;;30.67;12.73;;;;;;;16.48;36.01;102834.84;5114040;27;20039;-67
2022/01/19 05:13:35;;;;;;;35.10;12.13;;;;;;;16.65;36.62;102822.47;5131804;27;20501;-67
2022/01/19 05:16:00;;;;;;;32.47;12.47;;;;;;;16.80;36.22;102821.50;5129813;27;20015;-67
2022/01/19 05:18:26;;;;;;;35.37;13.53;;;;;;;16.71;36.65;102838.25;5122827;27;20066;-67
2022/01/19 05:20:52;;;;;;;36.97;13.87;;;;;;;16.70;36.15;102833.84;5094854;28;20225;-67
2022/01/19 05:23:17;;;;;;;40.53;14.70;;;;;;;16.63;36.81;102829.50;5125188;27;20096;-67
2022/01/19 05:25:44;;;;;;;36.30;14.90;;;;;;;16.59;36.74;102828.63;5114074;27;20031;-67
2022/01/19 05:28:10;;;;;;;35.23;13.20;;;;;;;17.00;36.06;102818.78;5113691;27;20096;-67
2022/01/19 05:30:36;;;;;;;43.80;15.03;;;;;;;16.88;36.71;102824.09;5132651;27;20038;-67
2022/01/19 05:33:01;;;;;;;46.57;16.77;;;;;;;16.84;36.79;102814.44;5130719;27;20027;-67
2022/01/19 05:35:27;;;;;;;40.17;15.23;;;;;;;16.67;36.62;102815.41;5113538;27;20027;-67
2022/01/19 05:37:53;;;;;;;42.50;16.83;;;;;;;16.95;36.79;102802.97;5113909;27;20080;-67
2022/01/19 05:40:19;;;;;;;47.00;16.87;;;;;;;17.13;36.94;102807.28;5100819;27;20247;-67
2022/01/19 05:42:47;;;;;;;49.40;17.30;;;;;;;17.16;36.59;102797.56;5103477;27;20136;-67
2022/01/19 05:45:13;;;;;;;49.73;16.17;;;;;;;16.88;36.92;102797.69;5113973;27;20063;-67
2022/01/19 05:47:38;;;;;;;53.60;17.13;;;;;;;17.09;36.94;102794.06;5112492;27;21002;-67
2022/01/19 05:50:04;;;;;;;44.10;15.87;;;;;;;17.06;36.63;102787.06;5102443;28;20031;-67
2022/01/19 05:52:30;;;;;;;45.30;16.33;;;;;;;16.89;36.51;102783.66;5101563;28;20042;-67
2022/01/19 05:54:55;;;;;;;43.87;15.27;;;;;;;17.01;36.41;102778.28;5092765;28;20448;-67
2022/01/19 05:57:20;;;;;;;36.00;13.53;;;;;;;17.05;36.58;102764.19;5109375;27;20035;-67
2022/01/19 05:59:46;;;;;;;36.50;13.30;;;;;;;16.93;36.35;102770.41;5106269;28;20032;-66
2022/01/19 06:02:12;;;;;;;39.07;14.23;;;;;;;16.73;36.32;102762.56;5108315;27;20479;-67
2022/01/19 06:04:37;;;;;;;43.73;17.20;;;;;;;16.81;36.74;102756.38;5112805;27;20064;-67
2022/01/19 06:07:03;;;;;;;38.67;12.87;;;;;;;17.05;36.45;102745.69;5111487;27;20490;-68
2022/01/19 06:12:13;;;;;;;42.50;14.70;;;;;;;17.12;36.43;102749.16;5127856;27;20092;-66
2022/01/19 06:14:41;;;;;;;38.80;15.03;;;;;;;17.59;35.51;102744.38;5111663;27;20478;-67
2022/01/19 06:17:08;;;;;;;42.77;14.70;;;;;;;16.95;37.07;102741.34;5120993;27;20112;-67
2022/01/19 06:19:34;;;;;;;48.83;18.20;;;;;;;17.45;36.37;102732.16;5131604;27;20488;-66
2022/01/19 06:22:00;;;;;;;50.10;16.10;;;;;;;17.09;36.79;102728.03;5130552;27;20057;-67
2022/01/19 06:24:25;;;;;;;55.93;17.33;;;;;;;17.08;37.29;102721.88;5112296;27;20047;-67
2022/01/19 06:26:51;;;;;;;53.70;18.50;;;;;;;16.81;37.28;102716.75;5111351;27;20062;-67
2022/01/19 06:29:16;;;;;;;50.00;17.90;;;;;;;15.80;39.25;102729.47;5111977;27;20375;-69
2022/01/19 06:31:42;;;;;;;51.33;18.17;;;;;;;16.35;38.75;102718.75;5112831;27;20019;-69
2022/01/19 06:34:07;;;;;;;47.87;17.30;;;;;;;16.81;37.64;102714.13;5112393;27;20359;-69
2022/01/19 06:36:33;;;;;;;48.27;17.53;;;;;;;17.00;37.70;102706.97;5103327;27;20096;-67
2022/01/19 06:38:58;;;;;;;49.73;17.43;;;;;;;16.91;37.62;102702.63;5113051;27;20483;-67
2022/01/19 06:41:24;;;;;;;52.80;18.27;;;;;;;15.88;39.21;102710.13;5112304;27;20035;-69
2022/01/19 06:43:50;;;;;;;62.57;18.63;;;;;;;16.38;38.56;102696.75;5111757;27;20027;-69
2022/01/19 06:46:15;;;;;;;46.37;17.33;;;;;;;16.79;38.27;102683.31;5112869;27;20053;-69
2022/01/19 06:48:41;;;;;;;54.23;17.13;;;;;;;17.10;37.72;102684.88;5097014;27;20489;-69
2022/01/19 06:51:06;;;;;;;48.73;17.37;;;;;;;16.08;39.11;102682.81;5111243;27;20379;-69
2022/01/19 06:53:31;;;;;;;62.27;18.73;;;;;;;15.81;39.81;102689.03;5130876;27;20080;-69
2022/01/19 06:55:57;;;;;;;49.27;18.27;;;;;;;16.06;39.85;102682.81;5130698;27;20106;-69
2022/01/19 06:58:24;;;;;;;52.83;17.87;;;;;;;16.17;39.55;102672.22;5110580;27;20023;-69
2022/01/19 07:00:49;;;;;;;57.23;19.60;;;;;;;14.94;41.87;102683.78;5111176;28;20062;-69
2022/01/19 07:03:15;;;;;;;55.50;19.43;;;;;;;16.24;39.10;102673.06;5110066;28;20047;-69
2022/01/19 07:05:40;;;;;;;53.47;19.50;;;;;;;16.73;38.34;102671.91;5127899;27;20435;-68
2022/01/19 07:08:05;;;;;;;56.70;19.23;;;;;;;15.50;41.09;102673.25;5095844;27;20030;-67
2022/01/19 07:10:31;;;;;;;58.63;19.03;;;;;;;15.76;40.52;102676.72;5108344;27;20066;-67
2022/01/19 07:13:01;;;;;;;54.33;19.90;;;;;;;15.51;41.26;102664.44;5130413;27;20033;-67
2022/01/19 07:15:27;;;;;;;50.60;18.83;;;;;;;16.41;39.16;102659.78;5111866;27;20446;-67
2022/01/19 07:17:52;;;;;;;56.27;22.03;;;;;;;16.50;39.31;102653.56;5111209;27;20050;-69
2022/01/19 07:20:18;;;;;;;56.83;22.03;;;;;;;15.83;40.34;102655.66;5128097;27;20478;-69
2022/01/19 07:22:43;;;;;;;56.60;21.13;;;;;;;15.56;41.20;102660.91;5106506;28;20070;-67
2022/01/19 07:25:09;;;;;;;63.80;21.50;;;;;;;16.11;39.91;102649.38;5129022;27;20027;-67
2022/01/19 07:27:35;;;;;;;60.37;20.97;;;;;;;16.35;39.51;102647.50;5129430;27;20206;-67
2022/01/19 07:30:00;;;;;;;59.03;19.80;;;;;;;16.04;39.84;102655.56;5111118;27;20106;-69
2022/01/19 07:32:30;;;;;;;55.30;19.73;;;;;;;16.09;39.69;102653.78;5111378;27;20023;-69
2022/01/19 07:34:55;;;;;;;64.67;20.83;;;;;;;16.01;40.67;102657.34;5111650;27;20027;-69
2022/01/19 07:37:20;;;;;;;63.43;21.90;;;;;;;15.88;41.17;102654.75;5098755;28;20410;-67
2022/01/19 07:39:46;;;;;;;60.33;21.60;;;;;;;16.03;40.02;102652.91;5106386;28;20027;-67
2022/01/19 07:42:11;;;;;;;62.53;21.60;;;;;;;15.30;41.85;102660.97;5111032;28;20506;-67
2022/01/19 07:44:39;;;;;;;60.63;21.43;;;;;;;14.83;43.11;102659.22;5112000;28;20031;-68
2022/01/19 07:47:05;;;;;;;59.83;21.70;;;;;;;15.63;41.59;102653.88;5126909;27;20023;-69
2022/01/19 07:49:30;;;;;;;54.50;19.90;;;;;;;16.20;40.18;102652.88;5109349;28;20027;-69
2022/01/19 07:51:55;;;;;;;58.17;20.07;;;;;;;14.80;43.73;102648.69;5127924;27;20027;-67
2022/01/19 07:54:21;;;;;;;57.53;19.60;;;;;;;15.51;42.36;102651.28;5128632;28;20083;-69
2022/01/19 07:56:47;;;;;;;62.30;23.13;;;;;;;15.78;40.57;102653.88;5130237;28;20043;-69
2022/01/19 07:59:12;;;;;;;55.50;21.80;;;;;;;15.80;40.54;102639.81;5102121;28;20038;-69
2022/01/19 08:01:38;;;;;;;52.93;20.17;;;;;;;15.99;40.72;102636.25;5110286;28;20027;-69
2022/01/19 08:04:03;;;;;;;61.30;21.47;;;;;;;15.33;41.92;102639.91;5129471;28;20031;-69
2022/01/19 08:06:29;;;;;;;55.53;20.73;;;;;;;16.28;39.42;102627.31;5128206;27;20042;-67
2022/01/19 08:08:55;;;;;;;53.47;19.97;;;;;;;16.15;40.35;102625.63;5129517;27;20027;-69
2022/01/19 08:11:20;;;;;;;60.33;22.17;;;;;;;16.70;39.08;102609.44;5114266;27;20458;-69
2022/01/19 08:13:46;;;;;;;58.70;20.53;;;;;;;15.87;41.26;102609.94;5124859;27;20023;-69
2022/01/19 08:16:11;;;;;;;56.43;20.77;;;;;;;16.15;39.73;102604.53;5113851;27;20060;-69
2022/01/19 08:18:36;;;;;;;62.73;22.07;;;;;;;16.66;39.17;102597.16;5125871;27;20038;-69
2022/01/19 08:21:02;;;;;;;56.63;20.83;;;;;;;16.16;39.96;102595.72;5131484;27;20030;-69
2022/01/19 08:23:27;;;;;;;47.87;19.20;;;;;;;15.78;40.83;102595.88;5113011;27;20135;-69
2022/01/19 08:25:53;;;;;;;54.53;19.77;;;;;;;15.65;41.47;102599.41;5133261;27;20348;-69
2022/01/19 08:28:20;;;;;;;53.00;20.00;;;;;;;15.00;42.42;102609.19;5114835;27;20031;-69
2022/01/19 08:30:46;;;;;;;58.73;21.00;;;;;;;16.16;40.24;102603.66;5133888;27;20051;-69
2022/01/19 08:33:11;;;;;;;57.47;19.93;;;;;;;16.62;39.29;102600.69;5128505;27;20139;-69
2022/01/19 08:35:37;;;;;;;56.50;19.90;;;;;;;16.55;39.26;102604.28;5094908;28;20145;-69
2022/01/19 08:38:03;;;;;;;54.33;18.90;;;;;;;16.76;38.70;102609.41;5098734;27;20470;-68
2022/01/19 08:40:30;;;;;;;50.50;19.67;;;;;;;16.36;39.31;102601.78;5115163;27;20023;-69
2022/01/19 08:42:55;;;;;;;60.17;20.67;;;;;;;14.84;42.60;102603.06;5111459;27;20403;-69
2022/01/19 08:45:22;;;;;;;53.33;20.27;;;;;;;16.00;40.69;102595.78;5128622;27;20023;-69
2022/01/19 08:47:47;;;;;;;52.07;19.53;;;;;;;15.54;40.98;102598.59;5111379;27;20050;-69
2022/01/19 08:50:15;;;;;;;50.40;19.60;;;;;;;16.39;40.06;102587.66;5132744;27;20034;-67
2022/01/19 08:52:41;;;;;;;57.23;20.13;;;;;;;15.15;41.65;102597.75;5108228;27;20104;-67
2022/01/19 08:55:07;;;;;;;49.90;18.07;;;;;;;15.82;41.06;102594.09;5124213;27;20147;-67
2022/01/19 08:57:33;;;;;;;46.80;17.57;;;;;;;14.37;43.61;102594.16;5124648;27;20027;-67
2022/01/19 08:59:58;;;;;;;50.43;18.17;;;;;;;13.86;44.90;102583.50;5133155;27;20102;-67
2022/01/19 09:02:23;;;;;;;50.50;17.70;;;;;;;14.14;45.01;102573.09;5130199;27;21720;-67
2022/01/19 09:04:49;;;;;;;53.50;18.30;;;;;;;14.34;45.63;102575.75;5112260;27;20060;-66
2022/01/19 09:07:14;;;;;;;50.77;19.80;;;;;;;14.15;45.49;102565.22;5132674;27;20536;-67
2022/01/19 09:09:40;;;;;;;48.97;18.03;;;;;;;13.23;48.13;102568.25;5114446;27;20027;-67
2022/01/19 09:12:06;;;;;;;46.63;18.13;;;;;;;13.34;47.13;102557.81;5114146;27;20035;-67
2022/01/19 09:14:31;;;;;;;49.00;18.33;;;;;;;13.06;48.07;102558.53;5133122;27;20037;-67
2022/01/19 09:16:58;;;;;;;62.47;21.20;;;;;;;12.88;49.54;102545.25;5128939;27;20027;-67
2022/01/19 09:19:23;;;;;;;44.47;17.63;;;;;;;14.36;46.35;102550.34;5114880;27;20035;-67
2022/01/19 09:21:49;;;;;;;54.57;19.13;;;;;;;14.40;45.43;102539.81;5110330;27;20023;-67
2022/01/19 09:24:16;;;;;;;50.60;18.90;;;;;;;14.37;45.71;102542.47;5109110;27;20100;-67
2022/01/19 09:26:42;;;;;;;47.60;18.73;;;;;;;14.07;45.32;102528.38;5128313;27;20643;-67
2022/01/19 09:29:07;;;;;;;52.77;19.17;;;;;;;14.15;45.47;102523.13;5129364;27;20073;-67
2022/01/19 09:31:34;;;;;;;54.33;18.43;;;;;;;13.68;46.11;102511.63;5113708;27;20047;-67
2022/01/19 09:34:10;;;;;;;52.40;17.63;;;;;;;13.79;46.78;102505.50;5126398;27;20019;-67
2022/01/19 09:36:44;;;;;;;56.73;20.20;;;;;;;13.02;48.54;102491.13;5108423;27;20030;-67
2022/01/19 09:39:10;;;;;;;62.07;20.30;;;;;;;12.95;49.11;102488.44;5103448;27;20034;-67
2022/01/19 09:41:36;;;;;;;48.67;19.80;;;;;;;13.66;47.87;102487.06;5114013;27;20066;-66
2022/01/19 09:44:01;;;;;;;49.80;18.50;;;;;;;13.52;48.73;102499.28;5110317;27;20027;-67
2022/01/19 09:46:29;;;;;;;48.97;18.53;;;;;;;13.72;46.72;102507.22;5097128;28;20030;-67
2022/01/19 09:48:55;;;;;;;48.83;19.37;;;;;;;13.99;47.06;102501.19;5113768;27;20023;-67
2022/01/19 09:51:20;;;;;;;54.20;18.43;;;;;;;13.81;46.91;102501.16;5121084;27;20489;-67
2022/01/19 09:53:49;;;;;;;49.33;18.97;;;;;;;15.19;44.03;102496.78;5126476;27;20517;-67
2022/01/19 09:56:16;;;;;;;60.73;20.27;;;;;;;14.70;44.83;102500.38;5109359;27;20399;-67
2022/01/19 09:58:42;;;;;;;56.10;18.70;;;;;;;15.03;42.99;102498.56;5113170;27;20027;-67
2022/01/19 10:01:07;;;;;;;52.00;19.50;;;;;;;13.89;46.13;102499.41;5109148;27;20038;-67
2022/01/19 10:03:33;;;;;;;52.00;19.40;;;;;;;14.22;45.66;102508.25;5111167;27;20023;-67
2022/01/19 10:06:12;;;;;;;58.10;19.77;;;;;;;15.05;43.64;102502.09;5132163;27;20034;-67
2022/01/19 10:08:45;;;;;;;54.27;19.07;;;;;;;14.24;45.41;102514.38;5111319;27;20027;-66
2022/01/19 10:11:22;;;;;;;50.30;19.93;;;;;;;14.37;44.29;102517.88;5107549;27;20035;-67
2022/01/19 10:17:06;;;;;;;55.10;19.17;;;;;;;14.75;43.69;102525.84;5129178;27;20034;-67
2022/01/19 10:19:44;;;;;;;57.97;21.20;;;;;;;14.90;43.96;102526.69;5113872;27;20087;-67
2022/01/19 10:22:15;;;;;;;55.77;20.53;;;;;;;14.67;43.84;102516.19;5112796;27;20080;-67
2022/01/19 10:24:54;;;;;;;55.13;20.40;;;;;;;15.49;43.04;102518.66;5113326;27;20047;-66
2022/01/19 10:27:45;;;;;;;53.17;19.70;;;;;;;16.30;40.97;102506.81;5106090;27;20027;-67
2022/01/19 10:30:17;;;;;;;57.10;20.77;;;;;;;15.61;42.09;102511.56;5130369;27;20536;-67
2022/01/19 10:32:55;;;;;;;56.72;21.88;;;;;;;15.24;42.52;102497.66;5122008;27;20054;-67
2022/01/19 10:35:31;;;;;;;56.97;22.27;;;;;;;13.35;47.07;102507.97;5111432;27;20020;-67
2022/01/19 10:38:14;;;;;;;54.07;21.67;;;;;;;15.10;43.22;102490.66;5104648;28;20023;-67
2022/01/19 10:40:42;;;;;;;44.85;18.85;;;;;;;14.50;45.41;102492.47;5102541;27;20836;-69
2022/01/19 10:43:32;;;;;;;59.67;22.10;;;;;;;14.24;44.59;102490.69;5111456;27;20027;-69
2022/01/19 10:46:20;;;;;;;60.33;21.83;;;;;;;14.79;44.23;102468.78;5112130;27;20031;-67
2022/01/19 10:48:45;;;;;;;53.77;21.23;;;;;;;15.39;43.03;102455.44;5110715;27;20362;-67
2022/01/19 10:51:19;;;;;;;63.63;23.17;;;;;;;15.23;43.50;102469.56;5113038;27;20023;-68
2022/01/19 10:54:04;;;;;;;63.47;22.73;;;;;;;14.58;44.29;102465.28;5100459;28;20119;-66
2022/01/19 10:56:30;;;;;;;57.87;22.73;;;;;;;14.80;43.85;102453.91;5100664;27;20474;-67
2022/01/19 10:58:59;;;;;;;59.40;21.27;;;;;;;16.20;41.67;102431.28;5127199;27;20097;-67
2022/01/19 11:01:40;;;;;;;60.03;22.63;;;;;;;14.21;45.36;102438.09;5106603;27;20470;-67
2022/01/19 11:04:27;;;;;;;63.40;21.87;;;;;;;14.52;44.76;102415.31;5107384;27;20027;-67
2022/01/19 11:06:59;;;;;;;50.13;20.10;;;;;;;15.40;43.60;102407.16;5112643;27;20034;-67
2022/01/19 11:09:28;;;;;;;52.60;21.30;;;;;;;15.32;42.98;102414.22;5109429;27;20148;-67
2022/01/19 11:11:57;;;;;;;57.97;21.53;;;;;;;15.77;41.98;102399.00;5093224;28;20043;-67
2022/01/19 11:14:24;;;;;;;61.37;21.00;;;;;;;15.04;43.00;102395.91;5109179;27;20457;-67
2022/01/19 11:16:51;;;;;;;51.27;21.40;;;;;;;15.03;43.60;102387.97;5120119;27;20444;-67
2022/01/19 11:19:19;;;;;;;56.33;21.13;;;;;;;14.50;45.95;102389.88;5111956;27;20027;-67
2022/01/19 11:22:04;;;;;;;50.17;21.43;;;;;;;14.64;44.53;102381.97;5112029;27;20030;-67
2022/01/19 11:24:42;;;;;;;46.10;19.37;;;;;;;15.52;43.47;102376.34;5110082;27;20086;-67
2022/01/19 11:27:07;;;;;;;51.00;20.73;;;;;;;15.30;43.07;102379.09;5112098;27;20669;-67
2022/01/19 11:29:34;;;;;;;57.33;20.40;;;;;;;15.31;43.14;102378.22;5110655;27;20122;-67
2022/01/19 11:32:13;;;;;;;47.23;19.30;;;;;;;15.00;44.87;102372.19;5123466;27;20027;-67
2022/01/19 11:34:43;;;;;;;58.33;21.03;;;;;;;14.95;45.50;102369.59;5111047;27;20023;-67
2022/01/19 11:37:08;;;;;;;58.97;22.33;;;;;;;15.06;44.98;102366.94;5129690;27;20023;-67
2022/01/19 11:39:34;;;;;;;49.17;19.70;;;;;;;16.34;40.90;102358.13;5110215;27;20031;-67
2022/01/19 11:42:07;;;;;;;48.77;19.27;;;;;;;14.53;44.74;102358.28;5128491;27;20041;-67
2022/01/19 11:44:33;;;;;;;41.23;18.53;;;;;;;16.35;41.57;102344.06;5108499;27;20121;-70
2022/01/19 11:47:13;;;;;;;44.23;20.40;;;;;;;16.27;41.80;102330.06;5130352;27;20156;-67
2022/01/19 11:49:52;;;;;;;47.77;19.23;;;;;;;15.65;43.25;102335.84;5107488;28;20027;-67
2022/01/19 11:52:22;;;;;;;46.40;18.37;;;;;;;15.20;43.46;102332.63;5110702;27;20494;-67
2022/01/19 11:54:49;;;;;;;43.33;19.90;;;;;;;15.98;41.95;102328.56;5110139;28;20023;-67
2022/01/19 11:57:22;;;;;;;46.27;18.87;;;;;;;16.57;40.73;102317.44;5124480;28;20490;-67
2022/01/19 11:59:47;;;;;;;51.00;20.17;;;;;;;15.50;42.69;102310.47;5110648;28;20075;-67
2022/01/19 12:02:23;;;;;;;41.10;19.90;;;;;;;16.44;41.32;102308.75;5106084;28;20039;-67
2022/01/19 12:04:54;;;;;;;48.10;19.47;;;;;;;16.43;41.57;102305.25;5111470;28;20049;-68
2022/01/19 12:07:48;;;;;;;51.27;21.00;;;;;;;16.19;41.69;102292.34;5109976;28;20031;-67
2022/01/19 12:10:30;;;;;;;44.60;19.70;;;;;;;16.21;42.01;102280.00;5110266;28;20027;-67
2022/01/19 12:17:01;;;;;;;46.30;17.77;;;;;;;16.36;41.48;102276.31;5128016;28;20501;-67
2022/01/19 12:19:23;;;;;;;48.25;19.15;;;;;;;15.45;42.93;102275.38;5123331;28;20032;-67
2022/01/19 12:21:58;;;;;;;44.27;18.13;;;;;;;16.23;42.22;102272.94;5109712;28;20027;-67
2022/01/19 12:24:29;;;;;;;44.97;19.03;;;;;;;16.27;42.06;102261.47;5110104;28;20070;-67
2022/01/19 12:27:00;;;;;;;47.23;18.53;;;;;;;17.08;39.46;102266.63;5094262;28;20471;-67
2022/01/19 12:29:38;;;;;;;42.70;17.53;;;;;;;17.56;38.48;102257.97;5108285;28;20146;-67
2022/01/19 12:32:15;;;;;;;43.73;17.90;;;;;;;17.52;38.88;102269.50;5091211;28;20046;-67
2022/01/19 12:34:52;;;;;;;43.07;18.00;;;;;;;16.57;40.63;102264.66;5106533;28;20034;-67
2022/01/19 12:37:27;;;;;;;41.83;17.57;;;;;;;15.12;42.82;102271.22;5121690;28;20068;-67
2022/01/19 12:39:53;;;;;;;41.43;17.90;;;;;;;16.35;40.91;102264.91;5110184;28;20069;-67